createdAt,value
2022-07-30T00:04:32.610Z,100432.03
2022-07-30T00:09:36.394Z,100433.65
2022-07-30T00:14:39.873Z,100432.63
2022-07-30T00:19:43.284Z,100430.42
2022-07-30T00:24:48.644Z,100423.40
2022-07-30T00:29:51.956Z,100416.59
2022-07-30T00:34:55.265Z,100414.98
2022-07-30T00:39:58.679Z,100411.45
2022-07-30T00:45:02.098Z,100413.71
2022-07-30T00:50:08.445Z,100407.91
2022-07-30T00:55:15.023Z,100405.27
2022-07-30T01:00:19.192Z,100400.61
2022-07-30T01:05:22.605Z,100400.64
2022-07-30T01:10:25.916Z,100393.81
2022-07-30T01:15:30.103Z,100380.99
2022-07-30T01:20:44.517Z,100380.15
2022-07-30T01:25:50.492Z,100379.84
2022-07-30T01:30:56.260Z,100376.51
2022-07-30T01:36:01.641Z,100371.70
2022-07-30T01:41:08.164Z,100368.27
2022-07-30T01:46:14.185Z,100364.27
2022-07-30T01:51:18.695Z,100354.85
2022-07-30T01:56:25.274Z,100352.30
2022-07-30T02:01:28.974Z,100342.44
2022-07-30T02:06:38.789Z,100343.00
2022-07-30T02:12:04.219Z,100337.67
2022-07-30T02:17:18.660Z,100328.77
2022-07-30T02:22:25.894Z,100316.80
2022-07-30T02:27:32.634Z,100305.77
2022-07-30T02:32:39.214Z,100307.29
2022-07-30T02:37:44.441Z,100304.75
2022-07-30T02:42:51.825Z,100307.26
2022-07-30T02:48:03.117Z,100309.52
2022-07-30T02:53:11.769Z,100307.50
2022-07-30T02:58:22.553Z,100306.81
2022-07-30T03:03:29.617Z,100296.85
2022-07-30T03:08:34.706Z,100301.17
2022-07-30T03:13:38.529Z,100299.42
2022-07-30T03:18:44.457Z,100297.33
2022-07-30T03:23:49.915Z,100300.34
2022-07-30T03:28:54.090Z,100298.09
2022-07-30T03:33:57.605Z,100301.30
2022-07-30T03:39:01.839Z,100307.94
2022-07-30T03:44:06.483Z,100323.40
2022-07-30T03:49:11.956Z,100341.34
2022-07-30T03:54:16.686Z,100338.70
2022-07-30T03:59:20.101Z,100328.04
2022-07-30T04:04:23.513Z,100307.92
2022-07-30T04:09:26.823Z,100308.46
2022-07-30T04:14:44.796Z,100310.48
2022-07-30T04:20:02.015Z,100308.52
2022-07-30T04:25:07.202Z,100316.05
2022-07-30T04:30:11.236Z,100314.80
2022-07-30T04:35:23.965Z,100321.39
2022-07-30T04:40:37.890Z,100313.45
2022-07-30T04:45:42.120Z,100310.83
2022-07-30T04:50:47.377Z,100312.98
2022-07-30T04:55:52.975Z,100312.27
2022-07-30T05:01:00.283Z,100303.27
2022-07-30T05:06:05.580Z,100295.34
2022-07-30T05:11:13.422Z,100298.31
2022-07-30T05:16:17.222Z,100300.47
2022-07-30T05:21:20.657Z,100305.64
2022-07-30T05:26:27.483Z,100307.96
2022-07-30T05:31:32.815Z,100312.35
2022-07-30T05:36:36.938Z,100303.36
2022-07-30T05:41:40.350Z,100295.46
2022-07-30T05:46:43.710Z,100286.88
2022-07-30T05:51:47.491Z,100278.34
2022-07-30T05:56:53.766Z,100273.13
2022-07-30T06:01:57.227Z,100270.19
2022-07-30T06:07:00.893Z,100272.80
2022-07-30T06:12:06.515Z,100269.34
2022-07-30T06:17:09.773Z,100280.42
2022-07-30T06:22:13.085Z,100282.02
2022-07-30T06:27:16.497Z,100278.55
2022-07-30T06:32:19.910Z,100283.56
2022-07-30T06:37:23.630Z,100290.29
2022-07-30T06:42:47.023Z,100296.11
2022-07-30T06:47:50.528Z,100294.83
2022-07-30T06:52:55.067Z,100294.52
2022-07-30T06:57:58.377Z,100295.20
2022-07-30T07:03:01.744Z,100295.55
2022-07-30T07:08:05.402Z,100295.61
2022-07-30T07:13:08.824Z,100298.52
2022-07-30T07:18:13.262Z,100295.80
2022-07-30T07:23:16.564Z,100293.97
2022-07-30T07:28:23.294Z,100282.34
2022-07-30T07:33:37.020Z,100279.18
2022-07-30T07:38:40.341Z,100266.80
2022-07-30T07:43:43.741Z,100265.23
2022-07-30T07:48:47.306Z,100260.96
2022-07-30T07:54:11.728Z,100260.96
2022-07-30T07:59:14.065Z,100251.98
2022-07-30T08:04:20.366Z,100253.58
2022-07-30T08:09:23.452Z,100243.36
2022-07-30T08:14:26.670Z,100242.16
2022-07-30T08:19:30.183Z,100242.37
2022-07-30T08:24:34.419Z,100249.64
2022-07-30T08:29:37.887Z,100247.56
2022-07-30T08:34:41.240Z,100239.62
2022-07-30T08:39:45.146Z,100243.41
2022-07-30T08:44:48.407Z,100238.88
2022-07-30T08:49:51.754Z,100231.22
2022-07-30T08:54:56.447Z,100232.52
2022-07-30T09:00:01.715Z,100224.73
2022-07-30T09:05:06.549Z,100232.09
2022-07-30T09:10:11.003Z,100227.48
2022-07-30T09:15:16.827Z,100229.98
2022-07-30T09:20:22.283Z,100229.33
2022-07-30T09:25:34.525Z,100234.52
2022-07-30T09:30:48.764Z,100227.11
2022-07-30T09:35:56.956Z,100229.25
2022-07-30T09:41:04.836Z,100225.81
2022-07-30T09:46:16.562Z,100221.05
2022-07-30T09:51:23.997Z,100221.30
2022-07-30T09:56:53.982Z,100224.77
2022-07-30T10:02:01.065Z,100226.46
2022-07-30T10:07:25.357Z,100226.64
2022-07-30T10:12:30.829Z,100227.29
2022-07-30T10:17:34.566Z,100230.30
2022-07-30T10:22:39.154Z,100231.88
2022-07-30T10:27:42.587Z,100232.10
2022-07-30T10:32:46.472Z,100230.27
2022-07-30T10:37:58.174Z,100232.20
2022-07-30T10:43:36.001Z,100234.88
2022-07-30T10:48:39.572Z,100221.81
2022-07-30T10:53:46.198Z,100219.47
2022-07-30T10:59:15.694Z,100209.81
2022-07-30T11:04:25.711Z,100210.90
2022-07-30T11:09:37.423Z,100205.23
2022-07-30T11:15:06.631Z,100203.94
2022-07-30T11:20:21.923Z,100197.94
2022-07-30T11:25:50.222Z,100192.73
2022-07-30T11:30:55.678Z,100192.49
2022-07-30T11:36:10.720Z,100191.30
2022-07-30T11:41:15.147Z,100179.42
2022-07-30T11:46:28.922Z,100166.88
2022-07-30T11:51:44.227Z,100167.27
2022-07-30T11:56:51.914Z,100167.46
2022-07-30T12:02:02.308Z,100165.50
2022-07-30T12:07:06.212Z,100161.16
2022-07-30T12:12:25.499Z,100167.27
2022-07-30T12:17:45.920Z,100156.47
2022-07-30T12:22:49.425Z,100150.02
2022-07-30T12:27:54.167Z,100147.50
2022-07-30T12:32:57.479Z,100146.80
2022-07-30T12:38:05.295Z,100142.60
2022-07-30T12:43:13.741Z,100143.63
2022-07-30T12:48:17.445Z,100140.55
2022-07-30T12:53:29.874Z,100141.25
2022-07-30T12:58:38.484Z,100141.77
2022-07-30T13:03:42.124Z,100141.16
2022-07-30T13:08:58.544Z,100133.71
2022-07-30T13:14:01.855Z,100125.35
2022-07-30T13:19:07.189Z,100118.05
2022-07-30T13:24:11.445Z,100112.79
2022-07-30T13:29:21.618Z,100110.23
2022-07-30T13:34:25.750Z,100110.45
2022-07-30T13:39:29.366Z,100111.18
2022-07-30T13:44:32.678Z,100107.13
2022-07-30T13:49:37.831Z,100104.63
2022-07-30T13:54:41.141Z,100093.48
2022-07-30T13:59:44.664Z,100087.76
2022-07-30T14:04:47.974Z,100087.29
2022-07-30T14:09:54.359Z,100082.77
2022-07-30T14:14:58.274Z,100078.73
2022-07-30T14:20:02.112Z,100072.80
2022-07-30T14:25:06.025Z,100068.88
2022-07-30T14:30:10.563Z,100065.77
2022-07-30T14:35:13.877Z,100061.23
2022-07-30T14:40:17.184Z,100062.86
2022-07-30T14:45:20.495Z,100058.70
2022-07-30T14:50:23.907Z,100053.14
2022-07-30T14:55:27.423Z,100052.06
2022-07-30T15:00:35.548Z,100054.09
2022-07-30T15:05:52.540Z,100051.90
2022-07-30T15:10:57.982Z,100047.29
2022-07-30T15:16:06.469Z,100044.21
2022-07-30T15:21:09.887Z,100038.73
2022-07-30T15:26:13.198Z,100036.94
2022-07-30T15:31:16.386Z,100034.20
2022-07-30T15:36:19.616Z,100035.64
2022-07-30T15:41:22.907Z,100040.55
2022-07-30T15:46:26.133Z,100036.91
2022-07-30T15:51:29.646Z,100031.31
2022-07-30T15:56:33.982Z,100028.93
2022-07-30T16:01:37.514Z,100022.66
2022-07-30T16:06:42.907Z,100016.08
2022-07-30T16:11:46.870Z,100017.13
2022-07-30T16:16:50.296Z,100014.41
2022-07-30T16:21:53.559Z,100013.28
2022-07-30T16:26:56.611Z,100010.34
2022-07-30T16:32:00.191Z,100006.59
2022-07-30T16:37:04.096Z,100008.09
2022-07-30T16:42:07.950Z,100005.33
2022-07-30T16:47:13.878Z,100001.27
2022-07-30T16:52:18.489Z,100003.73
2022-07-30T16:57:21.698Z,100008.59
2022-07-30T17:02:25.275Z,100009.85
2022-07-30T17:07:29.105Z,100008.61
2022-07-30T17:12:32.326Z,100002.75
2022-07-30T17:17:35.540Z,100005.08
2022-07-30T17:22:42.958Z,99999.45
2022-07-30T17:27:46.332Z,99992.79
2022-07-30T17:32:50.842Z,99989.39
2022-07-30T17:37:54.035Z,99991.14
2022-07-30T17:43:04.045Z,99990.38
2022-07-30T17:48:08.838Z,99989.66
2022-07-30T17:53:12.055Z,99989.83
2022-07-30T17:58:15.354Z,99992.45
2022-07-30T18:03:19.439Z,99993.92
2022-07-30T18:08:23.981Z,99993.27
2022-07-30T18:13:27.850Z,99990.14
2022-07-30T18:18:31.266Z,99990.13
2022-07-30T18:23:35.202Z,99993.63
2022-07-30T18:28:38.599Z,99991.60
2022-07-30T18:33:41.910Z,99990.62
2022-07-30T18:38:51.158Z,99994.02
2022-07-30T18:43:54.576Z,99999.69
2022-07-30T18:48:59.230Z,99995.92
2022-07-30T18:54:10.412Z,99998.63
2022-07-30T18:59:13.723Z,99997.73
2022-07-30T19:04:17.239Z,99998.63
2022-07-30T19:09:20.549Z,99997.53
2022-07-30T19:14:23.962Z,100001.64
2022-07-30T19:19:27.477Z,100007.75
2022-07-30T19:24:30.791Z,100009.85
2022-07-30T19:29:34.201Z,100007.38
2022-07-30T19:34:38.433Z,100004.61
2022-07-30T19:40:05.173Z,100007.73
2022-07-30T19:45:11.498Z,100012.21
2022-07-30T19:50:15.194Z,100009.67
2022-07-30T19:55:31.092Z,100008.23
2022-07-30T20:00:39.225Z,100006.64
2022-07-30T20:05:55.069Z,99995.42
2022-07-30T20:11:34.821Z,99994.66
2022-07-30T20:16:41.024Z,99992.80
2022-07-30T20:21:56.742Z,99993.83
2022-07-30T20:27:35.462Z,99994.52
2022-07-30T20:32:26.081Z,99989.73
2022-07-30T20:37:29.645Z,99988.98
2022-07-30T20:42:33.369Z,99987.17
2022-07-30T20:47:38.708Z,99984.73
2022-07-30T20:52:46.696Z,99982.80
2022-07-30T20:57:56.804Z,99987.64
2022-07-30T21:03:06.472Z,99987.25
2022-07-30T21:08:17.260Z,99989.57
2022-07-30T21:13:21.247Z,99991.96
2022-07-30T21:18:24.922Z,99987.84
2022-07-30T21:23:29.853Z,99982.45
2022-07-30T21:28:36.441Z,99988.31
2022-07-30T21:33:39.755Z,99989.67
2022-07-30T21:38:43.269Z,99990.71
2022-07-30T21:43:49.283Z,99987.41
2022-07-30T21:48:58.306Z,99988.16
2022-07-30T21:54:07.193Z,99983.86
2022-07-30T21:59:10.847Z,99980.62
2022-07-30T22:04:16.438Z,99973.42
2022-07-30T22:09:33.441Z,99969.84
2022-07-30T22:14:39.525Z,99970.64
2022-07-30T22:19:43.034Z,99968.06
2022-07-30T22:24:47.471Z,99965.54
2022-07-30T22:29:51.294Z,99958.42
2022-07-30T22:34:59.315Z,99957.83
2022-07-30T22:40:04.217Z,99951.19
2022-07-30T22:45:10.338Z,99945.10
2022-07-30T22:50:21.237Z,99944.38
2022-07-30T22:55:29.872Z,99938.08
2022-07-30T23:00:35.018Z,99939.66
2022-07-30T23:05:40.022Z,99937.89
2022-07-30T23:10:46.450Z,99936.24
2022-07-30T23:15:49.862Z,99930.96
2022-07-30T23:20:55.088Z,99934.88
2022-07-30T23:26:05.598Z,99935.14
2022-07-30T23:31:08.909Z,99936.10
2022-07-30T23:36:12.321Z,99933.67
2022-07-30T23:41:29.411Z,99934.66
2022-07-30T23:46:33.482Z,99929.45
2022-07-30T23:51:36.897Z,99928.59
2022-07-30T23:56:40.618Z,99921.41
